Junction City, Washington
Current Conditions -  °F | °C
As of 8:06 AM on Friday 24 Oct 2014 (Local Time) from KHQM Reporting Station
Haze Haze  
Wind Chill: 42°   Ceiling: 600
Heat Index: 47°   Visibility: 5mi
Dew Point: 46°   Wind: 10mph
Humidity: 97%   Direction: 50°NE
Pressure: 30.01"   Gusts: NA
Location:  47.1445°N, 123.771°W
Report Text: KHQM 241506Z AUTO 05009KT 5SM BR BKN006 08/08 A3001 RMK AO2 T00830078
Loading
Personal Weather Stations






























Interactive Weather Map
Tropical Storm Tracking
New forecast layout! Learn more

10-Day Weather Forecast

Advertisements
Track Severe Weather on mobile